Time;durP1;ratioP1;P1;durP2;ratioP2;P2;SDS_P1;SDS_P2;PMS_P1;PMS_P2;Temp;Humidity;BMP_temperature;BMP_pressure;BME280_temperature;BME280_humidity;BME280_pressure;Samples;Min_cycle;Max_cycle;Signal;HPM_P1;HPM_P2
2023/08/28 00:01:01;;;;;;;9.23;7.03;;;32.10;99.90;;;;;;5006874;23;20047;-57
2023/08/28 00:03:27;;;;;;;8.77;7.30;;;32.10;99.90;;;;;;4995169;28;20026;-57
2023/08/28 00:05:52;;;;;;;7.95;6.55;;;32.10;99.90;;;;;;4995300;28;20023;-56
2023/08/28 00:08:18;;;;;;;8.30;6.65;;;32.20;99.90;;;;;;4995221;28;20030;-56
2023/08/28 00:10:44;;;;;;;8.35;6.40;;;32.10;99.90;;;;;;4994817;28;20394;-56
2023/08/28 00:13:10;;;;;;;7.75;6.82;;;32.10;99.90;;;;;;4994862;28;20225;-56
2023/08/28 00:15:36;;;;;;;7.60;6.50;;;32.10;99.90;;;;;;4994905;28;20083;-56
2023/08/28 00:18:02;;;;;;;8.85;6.80;;;32.10;99.90;;;;;;4994847;28;20022;-57
2023/08/28 00:20:27;;;;;;;8.05;6.28;;;32.10;99.90;;;;;;4994817;28;20029;-56
2023/08/28 00:22:53;;;;;;;8.38;6.60;;;32.10;99.90;;;;;;4994611;28;20077;-56
2023/08/28 00:25:19;;;;;;;9.95;6.88;;;32.10;99.90;;;;;;4994674;28;20037;-55
2023/08/28 00:27:45;;;;;;;6.72;5.93;;;32.10;99.90;;;;;;4994645;28;20526;-55
2023/08/28 00:30:11;;;;;;;6.80;5.63;;;32.00;99.90;;;;;;4994768;28;20371;-55
2023/08/28 00:32:38;;;;;;;7.53;5.70;;;32.00;99.90;;;;;;4993284;28;20053;-56
2023/08/28 00:35:05;;;;;;;6.80;5.65;;;32.10;99.90;;;;;;4994553;28;20539;-55
2023/08/28 00:37:31;;;;;;;8.10;6.07;;;32.00;99.90;;;;;;4994480;28;20430;-55
2023/08/28 00:39:57;;;;;;;7.07;5.78;;;32.00;99.90;;;;;;4994526;28;20050;-55
2023/08/28 00:42:23;;;;;;;6.88;6.13;;;32.00;99.90;;;;;;4994390;28;20430;-57
2023/08/28 00:44:49;;;;;;;6.77;5.83;;;32.00;99.90;;;;;;4994549;28;20038;-55
2023/08/28 00:47:15;;;;;;;6.20;5.10;;;32.00;99.90;;;;;;4994413;28;20426;-56
2023/08/28 00:49:42;;;;;;;5.65;4.70;;;32.00;99.90;;;;;;4994352;28;20019;-55
2023/08/28 00:52:08;;;;;;;6.73;5.63;;;32.00;99.90;;;;;;4994150;28;20026;-56
2023/08/28 00:54:34;;;;;;;6.07;5.47;;;31.90;99.90;;;;;;4994112;28;20022;-56
2023/08/28 00:57:02;;;;;;;7.68;5.82;;;32.00;99.90;;;;;;4993959;28;20030;-56
2023/08/28 00:59:28;;;;;;;7.15;5.75;;;31.90;99.90;;;;;;4994358;28;20530;-56
2023/08/28 01:01:54;;;;;;;8.52;6.05;;;31.90;99.90;;;;;;4991450;23;20055;-48
2023/08/28 01:04:20;;;;;;;6.90;5.30;;;31.90;99.90;;;;;;4974448;28;20479;-48
2023/08/28 01:07:04;;;;;;;6.28;4.82;;;31.90;99.90;;;;;;4974330;28;20031;-48
2023/08/28 01:09:44;;;;;;;6.05;5.25;;;31.90;99.90;;;;;;4974553;28;20172;-48
2023/08/28 01:12:16;;;;;;;9.48;5.00;;;31.90;99.90;;;;;;4974159;28;20526;-48
2023/08/28 01:14:57;;;;;;;5.28;4.65;;;31.90;99.90;;;;;;4974289;28;20084;-48
2023/08/28 01:17:24;;;;;;;6.00;4.68;;;31.90;99.90;;;;;;4974172;28;20023;-48
2023/08/28 01:19:52;;;;;;;7.18;5.32;;;31.80;99.90;;;;;;4974083;28;20383;-48
2023/08/28 01:22:38;;;;;;;7.55;5.90;;;31.80;99.90;;;;;;4974095;28;20102;-48
2023/08/28 01:25:10;;;;;;;5.55;4.10;;;31.90;99.90;;;;;;4974139;28;20027;-48
2023/08/28 01:27:41;;;;;;;5.93;4.40;;;31.80;99.90;;;;;;4974069;28;20066;-48
2023/08/28 01:30:09;;;;;;;4.93;4.10;;;31.80;99.90;;;;;;4973773;28;20468;-49
2023/08/28 01:32:35;;;;;;;5.20;4.07;;;31.80;99.90;;;;;;4974104;28;20027;-48
2023/08/28 01:35:04;;;;;;;4.97;3.92;;;31.80;99.90;;;;;;4973429;28;20024;-48
2023/08/28 01:37:39;;;;;;;6.30;4.75;;;31.80;99.90;;;;;;4974262;28;20106;-48
2023/08/28 01:40:09;;;;;;;6.28;4.70;;;31.80;99.90;;;;;;4973919;28;20027;-48
2023/08/28 01:42:35;;;;;;;5.00;3.90;;;31.80;99.90;;;;;;4974004;28;20038;-48
2023/08/28 01:45:02;;;;;;;4.68;3.70;;;31.80;99.90;;;;;;4973907;28;20030;-48
2023/08/28 01:47:28;;;;;;;4.85;4.07;;;31.70;99.90;;;;;;4973718;28;20029;-48
2023/08/28 01:49:53;;;;;;;5.53;3.78;;;31.80;99.90;;;;;;4973472;28;20121;-48
2023/08/28 01:52:19;;;;;;;4.35;3.42;;;31.70;99.90;;;;;;4973847;28;20089;-48
2023/08/28 01:54:46;;;;;;;5.97;4.50;;;31.80;99.90;;;;;;4972321;28;20035;-48
2023/08/28 01:57:11;;;;;;;3.92;3.22;;;31.70;99.90;;;;;;4973699;28;20031;-48
2023/08/28 01:59:37;;;;;;;4.35;3.35;;;31.70;99.90;;;;;;4973565;28;20034;-48
2023/08/28 02:02:03;;;;;;;4.55;3.60;;;31.70;99.90;;;;;;4985332;23;20054;-53
2023/08/28 02:04:29;;;;;;;4.38;3.38;;;31.80;99.90;;;;;;4973634;28;20505;-53
2023/08/28 02:06:54;;;;;;;4.18;3.17;;;31.70;99.90;;;;;;4973592;28;20494;-53
2023/08/28 02:09:20;;;;;;;3.72;2.95;;;31.70;99.90;;;;;;4973435;28;20034;-53
2023/08/28 02:11:46;;;;;;;4.82;3.55;;;31.70;99.90;;;;;;4973300;28;20035;-54
2023/08/28 02:14:12;;;;;;;3.85;2.95;;;31.70;99.90;;;;;;4973293;28;20027;-54
2023/08/28 02:16:38;;;;;;;4.97;3.50;;;31.70;99.90;;;;;;4973306;28;20038;-53
2023/08/28 02:19:04;;;;;;;3.22;2.90;;;31.70;99.90;;;;;;4973441;28;20036;-53
2023/08/28 02:21:30;;;;;;;4.43;3.28;;;31.70;99.90;;;;;;4973504;28;20031;-54
2023/08/28 02:23:56;;;;;;;3.42;2.75;;;31.70;99.90;;;;;;4973233;28;20038;-54
2023/08/28 02:26:22;;;;;;;3.25;2.53;;;31.60;99.90;;;;;;4973285;28;20038;-54
2023/08/28 02:28:48;;;;;;;3.33;2.88;;;31.60;99.90;;;;;;4973238;28;20467;-54
2023/08/28 02:31:13;;;;;;;3.50;2.72;;;31.60;99.90;;;;;;4973091;28;20042;-54
2023/08/28 02:33:40;;;;;;;3.13;2.72;;;31.60;99.90;;;;;;4973118;28;20049;-53
2023/08/28 02:36:05;;;;;;;2.92;2.58;;;31.60;99.90;;;;;;4973053;28;20106;-54
2023/08/28 02:38:31;;;;;;;3.20;2.50;;;31.60;99.90;;;;;;4973320;28;20098;-54
2023/08/28 02:41:04;;;;;;;2.63;2.08;;;31.60;99.90;;;;;;4973275;28;20031;-54
2023/08/28 02:43:31;;;;;;;3.53;2.60;;;31.60;99.90;;;;;;4973599;28;20032;-54
2023/08/28 02:45:57;;;;;;;3.17;2.60;;;31.60;99.90;;;;;;4974616;28;20023;-54
2023/08/28 02:48:22;;;;;;;3.00;2.28;;;31.60;99.90;;;;;;4977012;28;20376;-54
2023/08/28 02:50:51;;;;;;;3.33;2.40;;;31.50;99.90;;;;;;4975541;28;20129;-53
2023/08/28 02:53:17;;;;;;;3.00;2.00;;;31.50;99.90;;;;;;4976920;28;20471;-53
2023/08/28 02:56:29;;;;;;;3.80;2.33;;;31.50;99.90;;;;;;4976954;28;20038;-53
2023/08/28 02:58:55;;;;;;;3.03;2.38;;;31.50;99.90;;;;;;4961312;28;20399;-53
2023/08/28 03:01:22;;;;;;;3.47;2.30;;;31.50;99.90;;;;;;4989040;22;20522;-48
2023/08/28 03:03:48;;;;;;;2.70;1.95;;;31.50;99.90;;;;;;4976920;28;20448;-48
2023/08/28 03:06:14;;;;;;;2.75;2.20;;;31.50;99.90;;;;;;4976750;28;20027;-47
2023/08/28 03:08:40;;;;;;;2.47;1.95;;;31.50;99.90;;;;;;4976510;28;20506;-47
2023/08/28 03:11:05;;;;;;;2.70;1.83;;;31.50;99.90;;;;;;4976666;28;20125;-48
2023/08/28 03:13:31;;;;;;;2.65;2.17;;;31.50;99.90;;;;;;4976574;28;20018;-48
2023/08/28 03:15:57;;;;;;;2.83;2.00;;;31.50;99.90;;;;;;4976353;28;20081;-48
2023/08/28 03:18:23;;;;;;;2.65;2.03;;;31.50;99.90;;;;;;4976420;28;20030;-48
2023/08/28 03:20:49;;;;;;;2.00;1.60;;;31.40;99.90;;;;;;4976573;28;20027;-47
2023/08/28 03:23:15;;;;;;;2.45;2.05;;;31.40;99.90;;;;;;4976481;28;20085;-48
2023/08/28 03:25:40;;;;;;;2.72;1.90;;;31.50;99.90;;;;;;4976511;28;20027;-47
2023/08/28 03:28:07;;;;;;;2.20;1.52;;;31.50;99.90;;;;;;4976777;28;20080;-48
2023/08/28 03:30:34;;;;;;;2.65;1.75;;;31.40;99.90;;;;;;4976292;28;20062;-48
2023/08/28 03:32:59;;;;;;;2.88;2.08;;;31.40;99.90;;;;;;4976053;28;20034;-47
2023/08/28 03:35:25;;;;;;;3.15;1.80;;;31.40;99.90;;;;;;4976281;28;20031;-47
2023/08/28 03:37:51;;;;;;;2.33;1.67;;;31.40;99.90;;;;;;4976020;28;20468;-48
2023/08/28 03:40:17;;;;;;;2.72;1.83;;;31.40;99.90;;;;;;4976078;28;20080;-48
2023/08/28 03:42:43;;;;;;;2.53;1.55;;;31.40;99.90;;;;;;4976053;28;20088;-48
2023/08/28 03:45:09;;;;;;;2.15;1.65;;;31.40;99.90;;;;;;4975850;28;20030;-48
2023/08/28 03:47:35;;;;;;;4.18;2.08;;;31.40;99.90;;;;;;4976123;28;20101;-48
2023/08/28 03:50:00;;;;;;;1.83;1.50;;;31.40;99.90;;;;;;4975957;28;20107;-48
2023/08/28 03:52:26;;;;;;;2.47;1.40;;;31.40;99.90;;;;;;4975879;28;20383;-48
2023/08/28 03:54:52;;;;;;;3.85;1.92;;;31.30;99.90;;;;;;4975667;28;20035;-48
2023/08/28 03:57:18;;;;;;;3.45;1.75;;;31.30;99.90;;;;;;4975009;28;20023;-48
2023/08/28 03:59:44;;;;;;;2.03;1.70;;;31.30;99.90;;;;;;4975784;28;20023;-48
2023/08/28 04:02:10;;;;;;;2.70;1.50;;;31.30;99.90;;;;;;4975899;28;20522;-48
2023/08/28 04:04:35;;;;;;;2.42;1.58;;;31.30;99.90;;;;;;4975818;28;20031;-48
2023/08/28 04:07:02;;;;;;;2.25;1.50;;;31.30;99.90;;;;;;4975594;28;20022;-47
2023/08/28 04:09:29;;;;;;;2.03;1.73;;;31.30;99.90;;;;;;4975557;28;20019;-48
2023/08/28 04:11:55;;;;;;;1.90;1.58;;;31.30;99.90;;;;;;4975406;28;20360;-48
2023/08/28 04:14:22;;;;;;;2.35;1.55;;;31.30;99.90;;;;;;4975557;28;20023;-48
2023/08/28 04:16:49;;;;;;;1.65;1.20;;;31.30;99.90;;;;;;4975308;28;20038;-48
2023/08/28 04:19:15;;;;;;;;;;;31.30;99.90;;;;;;4974563;28;20031;-48
2023/08/28 04:21:40;;;;;;;1.65;1.45;;;31.20;99.90;;;;;;4974049;28;20395;-48
2023/08/28 04:24:07;;;;;;;2.33;1.42;;;31.30;99.90;;;;;;4975617;28;20035;-47
2023/08/28 04:26:32;;;;;;;2.40;1.52;;;31.20;99.90;;;;;;4975221;28;20027;-48
2023/08/28 04:28:58;;;;;;;2.03;1.40;;;31.20;99.90;;;;;;4975099;28;20097;-48
2023/08/28 04:31:24;;;;;;;1.83;1.63;;;31.20;99.90;;;;;;4975105;28;20050;-47
2023/08/28 04:33:50;;;;;;;2.40;1.60;;;31.20;99.90;;;;;;4975176;28;20094;-47
2023/08/28 04:36:15;;;;;;;1.45;1.35;;;31.20;99.90;;;;;;4975071;28;20364;-47
2023/08/28 04:38:41;;;;;;;1.67;1.30;;;31.20;99.90;;;;;;4973912;28;20078;-48
2023/08/28 04:41:07;;;;;;;3.03;1.75;;;31.20;99.90;;;;;;4975108;28;20027;-48
2023/08/28 04:43:33;;;;;;;2.40;1.70;;;31.20;99.90;;;;;;4974787;28;20026;-48
2023/08/28 04:46:00;;;;;;;2.33;1.80;;;31.20;99.90;;;;;;4974841;28;20023;-48
2023/08/28 04:48:26;;;;;;;;;;;31.20;99.90;;;;;;4975262;28;20101;-48
2023/08/28 04:50:52;;;;;;;3.08;1.60;;;31.20;99.90;;;;;;4974631;28;20016;-47
2023/08/28 04:53:17;;;;;;;2.25;1.60;;;31.20;99.90;;;;;;4974821;28;20097;-48
2023/08/28 04:55:43;;;;;;;2.58;1.70;;;31.20;99.90;;;;;;4974535;28;20027;-48
2023/08/28 04:58:09;;;;;;;2.60;1.65;;;31.10;99.90;;;;;;4973699;28;20031;-48
2023/08/28 05:00:35;;;;;;;2.70;1.60;;;31.20;99.90;;;;;;4974308;28;20027;-48
2023/08/28 05:03:01;;;;;;;2.17;1.38;;;31.10;99.90;;;;;;4974451;28;20153;-48
2023/08/28 05:05:26;;;;;;;2.67;2.03;;;31.10;99.90;;;;;;4974419;28;20023;-47
2023/08/28 05:07:52;;;;;;;2.13;1.60;;;31.10;99.90;;;;;;4973082;28;20027;-48
2023/08/28 05:10:18;;;;;;;2.58;1.60;;;31.10;99.90;;;;;;4973389;28;20044;-47
2023/08/28 05:12:44;;;;;;;2.08;1.70;;;31.10;99.90;;;;;;4974392;28;20022;-47
2023/08/28 05:15:10;;;;;;;2.35;1.38;;;31.10;99.90;;;;;;4974390;28;20046;-48
2023/08/28 05:17:36;;;;;;;2.88;1.60;;;31.10;99.90;;;;;;4972912;28;20034;-48
2023/08/28 05:20:02;;;;;;;2.08;1.60;;;31.10;99.90;;;;;;4974079;28;20035;-47
2023/08/28 05:22:27;;;;;;;2.63;1.60;;;31.10;99.90;;;;;;4973029;28;20026;-48
2023/08/28 05:24:53;;;;;;;1.85;1.25;;;31.10;99.90;;;;;;4973880;28;20113;-48
2023/08/28 05:27:19;;;;;;;5.03;1.75;;;31.10;99.90;;;;;;4974059;28;20019;-47
2023/08/28 05:29:47;;;;;;;2.45;1.65;;;31.10;99.90;;;;;;4974107;28;20027;-47
2023/08/28 05:32:13;;;;;;;2.90;1.70;;;31.00;99.90;;;;;;4974063;28;20039;-47
2023/08/28 05:34:39;;;;;;;3.17;2.22;;;31.10;99.90;;;;;;4974062;28;20054;-47
2023/08/28 05:37:05;;;;;;;3.65;1.83;;;31.00;99.90;;;;;;4974109;28;20049;-48
2023/08/28 05:39:31;;;;;;;2.35;1.77;;;31.00;99.90;;;;;;4972717;28;20031;-47
2023/08/28 05:41:56;;;;;;;2.67;1.60;;;31.00;99.90;;;;;;4973822;28;20090;-48
2023/08/28 05:44:22;;;;;;;2.67;1.60;;;31.00;99.90;;;;;;4973737;28;20494;-48
2023/08/28 05:46:48;;;;;;;3.10;1.65;;;31.00;99.90;;;;;;4973668;28;20391;-48
2023/08/28 05:49:14;;;;;;;2.45;1.58;;;31.00;99.90;;;;;;4973905;28;20309;-48
2023/08/28 05:51:39;;;;;;;4.38;1.27;;;31.00;99.90;;;;;;4973902;28;20039;-47
2023/08/28 05:54:05;;;;;;;2.35;1.33;;;31.00;99.90;;;;;;4973644;28;20026;-47
2023/08/28 05:56:31;;;;;;;2.47;1.33;;;31.00;99.90;;;;;;4973524;28;20030;-48
2023/08/28 05:58:57;;;;;;;3.85;1.50;;;31.00;99.90;;;;;;4972208;28;20383;-48
2023/08/28 06:01:23;;;;;;;2.22;1.20;;;31.00;99.90;;;;;;4973361;28;20046;-48
2023/08/28 06:03:51;;;;;;;1.77;1.23;;;31.00;99.90;;;;;;4973463;28;20055;-48
2023/08/28 06:06:16;;;;;;;1.95;1.30;;;31.00;99.90;;;;;;4973461;28;20015;-47
2023/08/28 06:08:42;;;;;;;3.10;1.42;;;30.90;99.90;;;;;;4973796;28;20029;-48
2023/08/28 06:11:08;;;;;;;2.97;1.35;;;30.90;99.90;;;;;;4973368;28;20442;-48
2023/08/28 06:13:34;;;;;;;2.78;1.55;;;30.90;99.90;;;;;;4973284;28;20106;-48
2023/08/28 06:15:59;;;;;;;2.90;1.50;;;30.90;99.90;;;;;;4973198;28;20027;-48
2023/08/28 06:18:26;;;;;;;3.85;1.45;;;30.90;99.90;;;;;;4973311;28;20074;-47
2023/08/28 06:20:52;;;;;;;5.95;1.30;;;30.90;99.90;;;;;;4971574;28;20031;-48
2023/08/28 06:23:18;;;;;;;2.40;1.65;;;30.90;99.90;;;;;;4973375;28;20038;-48
2023/08/28 06:25:47;;;;;;;2.97;1.60;;;30.90;99.90;;;;;;4973382;28;20031;-48
2023/08/28 06:28:13;;;;;;;2.72;1.98;;;30.90;99.90;;;;;;4973423;28;20574;-48
2023/08/28 06:30:39;;;;;;;3.50;2.25;;;30.90;99.90;;;;;;4973088;28;20376;-48
2023/08/28 06:33:05;;;;;;;3.17;1.80;;;31.00;99.90;;;;;;4973141;28;20038;-47
2023/08/28 06:35:32;;;;;;;3.13;1.75;;;31.00;99.90;;;;;;4972993;28;20026;-48
2023/08/28 06:37:58;;;;;;;4.15;1.38;;;30.90;99.90;;;;;;4971927;28;20022;-47
2023/08/28 06:40:24;;;;;;;2.75;1.52;;;30.90;99.90;;;;;;4973152;28;20026;-47
2023/08/28 06:42:49;;;;;;;2.88;1.40;;;30.90;99.90;;;;;;4973013;28;20535;-48
2023/08/28 06:45:15;;;;;;;3.63;2.22;;;30.90;99.90;;;;;;4973429;28;20027;-47
2023/08/28 06:47:41;;;;;;;3.58;1.83;;;30.90;99.90;;;;;;4973127;28;20025;-47
2023/08/28 06:50:07;;;;;;;2.90;1.75;;;31.00;99.90;;;;;;4972782;28;20035;-47
2023/08/28 06:52:33;;;;;;;2.08;1.20;;;30.90;99.90;;;;;;4972845;28;20479;-47
2023/08/28 06:55:00;;;;;;;4.55;2.00;;;31.00;99.90;;;;;;4972911;28;20179;-47
2023/08/28 06:57:26;;;;;;;4.72;2.17;;;30.90;99.90;;;;;;4972955;28;20479;-48
2023/08/28 06:59:53;;;;;;;2.38;1.77;;;31.00;99.90;;;;;;4971524;28;20034;-48
2023/08/28 07:02:19;;;;;;;;;;;31.00;99.90;;;;;;4972888;28;20161;-48
2023/08/28 07:04:44;;;;;;;3.75;1.60;;;31.00;99.90;;;;;;4973128;28;19957;-47
2023/08/28 07:07:12;;;;;;;2.70;1.60;;;30.90;99.90;;;;;;4971618;28;20031;-49
2023/08/28 07:09:39;;;;;;;3.22;1.52;;;31.00;99.90;;;;;;4972802;28;20496;-48
2023/08/28 07:12:05;;;;;;;2.60;1.83;;;30.90;99.90;;;;;;4973019;28;20037;-48
2023/08/28 07:14:31;;;;;;;2.72;1.35;;;31.00;99.90;;;;;;4972948;28;20035;-48
2023/08/28 07:16:57;;;;;;;4.28;1.50;;;31.00;99.90;;;;;;4972917;28;20045;-48
2023/08/28 07:19:22;;;;;;;1.98;1.17;;;31.00;99.90;;;;;;4972848;28;20038;-48
2023/08/28 07:21:48;;;;;;;4.20;1.52;;;31.00;99.90;;;;;;4972869;28;20077;-47
2023/08/28 07:24:14;;;;;;;3.05;1.73;;;31.10;99.90;;;;;;4972952;28;20023;-46
2023/08/28 07:26:40;;;;;;;3.47;1.58;;;31.00;99.90;;;;;;4971608;28;20360;-47
2023/08/28 07:29:06;;;;;;;2.67;1.23;;;31.10;99.90;;;;;;4972665;28;20097;-47
2023/08/28 07:31:32;;;;;;;2.72;1.67;;;31.00;99.90;;;;;;4972668;28;20035;-47
2023/08/28 07:33:59;;;;;;;3.17;1.73;;;31.10;99.90;;;;;;4975346;28;20023;-47
2023/08/28 07:36:25;;;;;;;2.85;1.80;;;31.10;99.90;;;;;;4976234;28;20051;-47
2023/08/28 07:38:50;;;;;;;5.70;1.92;;;31.10;99.90;;;;;;4976094;28;20541;-47
2023/08/28 07:41:18;;;;;;;3.08;1.60;;;31.10;99.90;;;;;;4976410;28;20035;-48
2023/08/28 07:43:44;;;;;;;2.42;1.70;;;31.10;99.90;;;;;;4975695;28;20487;-47
2023/08/28 07:46:10;;;;;;;2.25;1.52;;;31.10;99.90;;;;;;4975742;28;20089;-47
2023/08/28 07:48:36;;;;;;;8.02;1.90;;;31.10;99.90;;;;;;4975957;28;20019;-47
2023/08/28 07:51:02;;;;;;;3.28;1.98;;;31.10;99.90;;;;;;4974457;28;20035;-47
2023/08/28 07:53:28;;;;;;;2.10;1.67;;;31.10;99.90;;;;;;4975852;28;20030;-47
2023/08/28 07:55:54;;;;;;;4.28;1.52;;;31.10;99.90;;;;;;4975840;28;20027;-47
2023/08/28 07:58:19;;;;;;;3.22;1.50;;;31.20;99.90;;;;;;4975695;28;20047;-47
2023/08/28 08:00:45;;;;;;;5.65;1.95;;;31.20;99.90;;;;;;4975440;28;20058;-48
2023/08/28 08:03:11;;;;;;;3.22;1.67;;;31.20;99.90;;;;;;4975716;28;20150;-47
2023/08/28 08:05:37;;;;;;;5.38;2.10;;;31.20;99.90;;;;;;4975431;28;20037;-47
2023/08/28 08:08:03;;;;;;;3.30;2.00;;;31.20;99.90;;;;;;4990479;28;20027;-47
2023/08/28 08:10:29;;;;;;;3.80;2.00;;;31.20;99.90;;;;;;4975288;28;20436;-47
2023/08/28 08:12:55;;;;;;;3.05;1.75;;;31.20;99.90;;;;;;4973990;28;20069;-47
2023/08/28 08:15:21;;;;;;;2.40;1.70;;;31.20;99.90;;;;;;4975538;28;20030;-48
2023/08/28 08:17:47;;;;;;;4.43;2.17;;;31.20;99.90;;;;;;4975513;28;20361;-48
2023/08/28 08:20:13;;;;;;;2.70;2.15;;;31.20;99.90;;;;;;4975490;28;20602;-47
2023/08/28 08:22:40;;;;;;;5.22;2.08;;;31.20;99.90;;;;;;4975353;28;20377;-47
2023/08/28 08:25:06;;;;;;;;;;;31.20;99.90;;;;;;4975538;28;20093;-47
2023/08/28 08:27:33;;;;;;;3.35;1.75;;;31.20;99.90;;;;;;4975403;28;19974;-47
2023/08/28 08:29:59;;;;;;;3.73;1.67;;;31.20;99.90;;;;;;4975012;28;20059;-47
2023/08/28 08:32:25;;;;;;;2.95;1.75;;;31.20;99.90;;;;;;4974972;28;20034;-48
2023/08/28 08:34:50;;;;;;;4.03;2.30;;;31.20;99.90;;;;;;4975052;28;20031;-48
2023/08/28 08:37:16;;;;;;;3.90;1.80;;;31.20;99.90;;;;;;4974822;28;20030;-48
2023/08/28 08:39:43;;;;;;;4.78;2.42;;;31.20;99.90;;;;;;4974908;28;20073;-48
2023/08/28 08:42:09;;;;;;;4.50;2.33;;;31.20;99.90;;;;;;4974906;28;20109;-48
2023/08/28 08:44:35;;;;;;;2.67;1.95;;;31.20;99.90;;;;;;4974668;28;20089;-48
2023/08/28 08:47:04;;;;;;;5.47;2.55;;;31.20;99.90;;;;;;4974833;28;20468;-47
2023/08/28 08:49:33;;;;;;;3.58;1.65;;;31.20;99.90;;;;;;4974780;28;20498;-47
2023/08/28 08:52:08;;;;;;;4.90;2.30;;;31.20;99.90;;;;;;4974734;28;20045;-47
2023/08/28 08:54:42;;;;;;;5.35;2.60;;;31.20;99.90;;;;;;4974516;28;20023;-48
2023/08/28 08:57:18;;;;;;;4.60;3.35;;;31.30;99.90;;;;;;4974587;28;20523;-48
2023/08/28 08:59:44;;;;;;;3.67;2.38;;;31.30;99.90;;;;;;4974655;28;20154;-48
2023/08/28 09:02:12;;;;;;;3.72;2.47;;;31.30;99.90;;;;;;4974447;28;20039;-48
2023/08/28 09:04:40;;;;;;;4.15;2.35;;;31.30;99.90;;;;;;4973105;28;20110;-48
2023/08/28 09:07:06;;;;;;;2.95;2.35;;;31.30;99.90;;;;;;4974374;28;20073;-47
2023/08/28 09:09:32;;;;;;;4.32;2.55;;;31.30;99.90;;;;;;4974421;28;20344;-48
2023/08/28 09:11:58;;;;;;;4.13;2.58;;;31.30;99.90;;;;;;4974291;28;20038;-48
2023/08/28 09:14:24;;;;;;;2.92;2.50;;;31.30;99.90;;;;;;4974327;28;20023;-47
2023/08/28 09:16:50;;;;;;;3.60;2.70;;;31.30;99.90;;;;;;4974298;28;20035;-48
2023/08/28 09:19:16;;;;;;;4.35;2.53;;;31.30;99.90;;;;;;4974095;28;20038;-47
2023/08/28 09:21:47;;;;;;;4.18;2.83;;;31.30;99.90;;;;;;4973905;28;20034;-48
2023/08/28 09:24:13;;;;;;;3.92;2.80;;;31.30;99.90;;;;;;4974110;28;20022;-47
2023/08/28 09:26:39;;;;;;;4.22;2.95;;;31.30;99.90;;;;;;4974158;28;20030;-47
2023/08/28 09:29:07;;;;;;;5.90;2.95;;;31.30;99.90;;;;;;4973925;28;20022;-48
2023/08/28 09:31:37;;;;;;;5.72;2.72;;;31.40;99.90;;;;;;4973824;28;20041;-48
2023/08/28 09:34:04;;;;;;;5.65;3.10;;;31.40;99.90;;;;;;4973850;28;20019;-47
2023/08/28 09:36:36;;;;;;;3.97;3.15;;;31.40;99.90;;;;;;4972342;28;20023;-47
2023/08/28 09:39:04;;;;;;;4.15;2.65;;;31.40;99.90;;;;;;4973544;28;20027;-48
2023/08/28 09:41:42;;;;;;;4.22;2.92;;;31.40;99.90;;;;;;4973597;28;20034;-48
2023/08/28 09:44:09;;;;;;;6.47;3.35;;;31.40;99.90;;;;;;4973615;28;20026;-47
2023/08/28 09:46:38;;;;;;;6.25;3.30;;;31.40;99.90;;;;;;4973508;28;20031;-48
2023/08/28 09:49:05;;;;;;;4.88;3.20;;;31.40;99.90;;;;;;4973755;28;20386;-48
2023/08/28 09:51:42;;;;;;;3.78;2.90;;;31.40;99.90;;;;;;4973492;28;20037;-48
2023/08/28 09:54:09;;;;;;;;;;;31.40;99.90;;;;;;4973772;28;20031;-48
2023/08/28 09:56:35;;;;;;;4.53;3.30;;;31.40;99.90;;;;;;4972980;28;19976;-47
2023/08/28 09:59:03;;;;;;;4.95;2.85;;;31.40;99.90;;;;;;4973544;28;20050;-48
2023/08/28 10:01:34;;;;;;;4.15;2.95;;;31.40;99.90;;;;;;4973403;28;20411;-48
2023/08/28 10:04:11;;;;;;;4.72;3.20;;;31.40;99.90;;;;;;4973490;28;20363;-48
2023/08/28 10:06:51;;;;;;;4.65;3.05;;;31.40;99.90;;;;;;4973411;28;20019;-47
2023/08/28 10:09:21;;;;;;;3.88;2.85;;;31.40;99.90;;;;;;4973222;28;20106;-48
2023/08/28 10:11:50;;;;;;;3.50;2.35;;;31.50;99.90;;;;;;4973342;28;20372;-48
2023/08/28 10:14:17;;;;;;;3.75;2.83;;;31.50;99.90;;;;;;4973247;28;20042;-47
2023/08/28 10:16:52;;;;;;;4.05;2.75;;;31.50;99.90;;;;;;4973241;28;20019;-47
2023/08/28 10:20:03;;;;;;;4.13;2.75;;;31.50;99.90;;;;;;4973265;28;20471;-48
2023/08/28 10:22:32;;;;;;;3.63;2.97;;;31.50;99.90;;;;;;4967865;28;20082;-48
2023/08/28 10:24:59;;;;;;;3.47;2.72;;;31.50;99.90;;;;;;4973479;28;20052;-48
2023/08/28 10:27:26;;;;;;;3.83;2.78;;;31.50;99.90;;;;;;4973441;28;20062;-48
2023/08/28 10:29:53;;;;;;;3.05;2.75;;;31.60;99.90;;;;;;4972988;28;20503;-48
2023/08/28 10:32:20;;;;;;;5.57;3.22;;;31.60;99.90;;;;;;4972914;28;20277;-48
2023/08/28 10:34:46;;;;;;;;;;;31.60;99.90;;;;;;4973398;28;20030;-48
2023/08/28 10:37:13;;;;;;;3.67;2.20;;;31.60;99.90;;;;;;4973045;28;19910;-47
2023/08/28 10:39:43;;;;;;;4.28;2.65;;;31.60;99.90;;;;;;4973147;28;20015;-47
2023/08/28 10:42:11;;;;;;;3.33;2.67;;;31.60;99.90;;;;;;4973031;28;20031;-49
2023/08/28 10:44:38;;;;;;;5.18;2.58;;;31.60;99.90;;;;;;4973148;28;20027;-48
2023/08/28 10:47:05;;;;;;;6.53;2.75;;;31.60;99.90;;;;;;4972918;28;20117;-47
2023/08/28 10:49:34;;;;;;;4.05;3.03;;;31.60;99.90;;;;;;4972712;28;20027;-48
2023/08/28 10:52:06;;;;;;;4.55;3.33;;;31.70;99.90;;;;;;4972990;28;20487;-48
2023/08/28 10:54:50;;;;;;;3.00;2.55;;;31.70;99.90;;;;;;4972961;28;20031;-48
2023/08/28 10:57:24;;;;;;;4.57;2.88;;;31.70;99.90;;;;;;4972951;28;20078;-48
2023/08/28 10:59:50;;;;;;;4.07;2.95;;;31.70;99.90;;;;;;4972930;28;20027;-48
2023/08/28 11:02:17;;;;;;;3.40;2.33;;;31.70;99.90;;;;;;4972566;28;20078;-48
2023/08/28 11:04:43;;;;;;;3.28;2.60;;;31.70;99.90;;;;;;4973002;28;20034;-48
2023/08/28 11:07:21;;;;;;;3.30;2.90;;;31.70;99.90;;;;;;4974601;28;20399;-48
2023/08/28 11:09:48;;;;;;;4.05;2.65;;;31.80;99.90;;;;;;4976456;28;20464;-48
2023/08/28 11:12:15;;;;;;;2.80;2.35;;;31.80;99.90;;;;;;4976238;28;20483;-47
2023/08/28 11:14:42;;;;;;;3.40;2.60;;;31.80;99.90;;;;;;4976364;28;20110;-48
2023/08/28 11:17:07;;;;;;;3.55;2.50;;;31.80;99.90;;;;;;4976361;28;20035;-48
2023/08/28 11:19:56;;;;;;;4.50;3.05;;;31.80;99.90;;;;;;4976173;28;20022;-48
2023/08/28 11:22:42;;;;;;;4.22;2.75;;;31.90;99.90;;;;;;4990711;28;20046;-48
2023/08/28 11:25:14;;;;;;;4.22;2.70;;;31.90;99.90;;;;;;4975953;28;20357;-48
2023/08/28 11:27:45;;;;;;;4.63;2.95;;;31.90;99.90;;;;;;4976049;28;20051;-48
2023/08/28 11:30:13;;;;;;;3.45;2.70;;;31.90;99.90;;;;;;4976149;28;20027;-47
2023/08/28 11:32:41;;;;;;;3.75;2.50;;;31.90;99.90;;;;;;4974797;28;20391;-47
2023/08/28 11:35:14;;;;;;;3.75;2.60;;;31.90;99.90;;;;;;4974673;28;20447;-47
2023/08/28 11:37:41;;;;;;;3.08;2.58;;;31.90;99.90;;;;;;4975978;28;20034;-48
2023/08/28 11:40:09;;;;;;;4.15;2.72;;;32.00;99.90;;;;;;4976121;28;20106;-47
2023/08/28 11:42:36;;;;;;;3.55;2.25;;;32.00;99.90;;;;;;4975958;28;20031;-49
2023/08/28 11:45:04;;;;;;;3.35;2.60;;;32.00;99.90;;;;;;4976241;28;20026;-47
2023/08/28 11:47:32;;;;;;;2.80;2.35;;;32.00;99.90;;;;;;4976056;28;20472;-47
2023/08/28 11:49:59;;;;;;;3.83;2.97;;;32.00;99.90;;;;;;4975834;28;20026;-48
2023/08/28 11:52:25;;;;;;;4.30;2.97;;;32.00;99.90;;;;;;4975806;28;20035;-48
2023/08/28 11:54:52;;;;;;;4.55;3.00;;;32.00;99.90;;;;;;4976012;28;20054;-48
2023/08/28 11:57:19;;;;;;;4.65;2.83;;;32.00;99.90;;;;;;4975824;28;20113;-48
2023/08/28 11:59:47;;;;;;;2.97;2.20;;;32.10;99.90;;;;;;4975662;28;20067;-48
2023/08/28 12:02:14;;;;;;;2.75;2.40;;;32.10;99.90;;;;;;4975296;28;20043;-47
2023/08/28 12:04:40;;;;;;;4.73;2.53;;;32.10;99.90;;;;;;4974280;28;20050;-48
2023/08/28 12:07:23;;;;;;;2.97;2.35;;;32.10;99.90;;;;;;4975644;28;20029;-48
2023/08/28 12:09:50;;;;;;;4.50;2.60;;;32.10;99.90;;;;;;4975650;28;20027;-47
2023/08/28 12:12:17;;;;;;;5.13;3.17;;;32.10;99.90;;;;;;4975401;28;20026;-47
2023/08/28 12:14:47;;;;;;;2.83;2.40;;;32.10;99.90;;;;;;4958137;28;20376;-47
2023/08/28 12:17:16;;;;;;;4.80;2.95;;;32.10;99.90;;;;;;4975425;28;20034;-47
2023/08/28 12:19:42;;;;;;;5.90;2.60;;;32.20;99.90;;;;;;4974996;28;20023;-47
2023/08/28 12:22:10;;;;;;;3.17;2.22;;;32.20;99.90;;;;;;4975429;28;20164;-47
2023/08/28 12:24:46;;;;;;;3.38;2.30;;;32.20;99.90;;;;;;4975261;28;20027;-47
2023/08/28 12:27:13;;;;;;;3.22;2.38;;;32.20;99.90;;;;;;4975252;28;20057;-47
2023/08/28 12:29:42;;;;;;;5.50;2.83;;;32.20;99.90;;;;;;4975302;28;20023;-47
2023/08/28 12:32:15;;;;;;;3.70;2.60;;;32.20;99.90;;;;;;4975234;28;20038;-47
2023/08/28 12:34:41;;;;;;;4.13;2.45;;;32.20;99.90;;;;;;4975082;28;20026;-47
2023/08/28 12:37:09;;;;;;;3.33;2.47;;;32.20;99.90;;;;;;4975071;28;20078;-47
2023/08/28 12:39:35;;;;;;;3.83;2.67;;;32.20;99.90;;;;;;4975136;28;20026;-48
2023/08/28 12:42:02;;;;;;;3.38;2.50;;;32.20;99.90;;;;;;4975204;28;20409;-48
2023/08/28 12:44:30;;;;;;;4.55;3.15;;;32.20;99.90;;;;;;4974834;28;20106;-48
2023/08/28 12:46:57;;;;;;;3.75;2.65;;;32.20;99.90;;;;;;4975253;28;20448;-47
2023/08/28 12:49:23;;;;;;;3.10;2.53;;;32.30;99.90;;;;;;4974777;28;20019;-48